sensor_id;sensor_type;location;lat;lon;timestamp;temperature;humidity
31735;DHT22;18313;48.518;9.124;2022-12-07T00:01:30;4.10;99.90
31735;DHT22;18313;48.518;9.124;2022-12-07T00:04:17;4.00;99.90
31735;DHT22;18313;48.518;9.124;2022-12-07T00:07:03;4.00;99.90
31735;DHT22;18313;48.518;9.124;2022-12-07T00:09:49;4.10;99.90
31735;DHT22;18313;48.518;9.124;2022-12-07T00:12:34;4.00;99.90
31735;DHT22;18313;48.518;9.124;2022-12-07T00:15:20;4.10;99.90
31735;DHT22;18313;48.518;9.124;2022-12-07T00:18:05;4.10;99.90
31735;DHT22;18313;48.518;9.124;2022-12-07T00:20:51;4.10;99.90
31735;DHT22;18313;48.518;9.124;2022-12-07T00:23:37;4.10;99.90
31735;DHT22;18313;48.518;9.124;2022-12-07T00:26:29;4.10;99.90
31735;DHT22;18313;48.518;9.124;2022-12-07T00:29:19;4.10;99.90
31735;DHT22;18313;48.518;9.124;2022-12-07T00:32:05;4.10;99.90
31735;DHT22;18313;48.518;9.124;2022-12-07T00:34:51;4.20;99.90
31735;DHT22;18313;48.518;9.124;2022-12-07T00:37:36;4.10;99.90
31735;DHT22;18313;48.518;9.124;2022-12-07T00:40:22;4.10;99.90
31735;DHT22;18313;48.518;9.124;2022-12-07T00:43:07;4.00;99.90
31735;DHT22;18313;48.518;9.124;2022-12-07T00:45:54;4.00;99.90
31735;DHT22;18313;48.518;9.124;2022-12-07T00:48:40;4.10;99.90
31735;DHT22;18313;48.518;9.124;2022-12-07T00:51:26;4.10;99.90
31735;DHT22;18313;48.518;9.124;2022-12-07T00:54:11;4.10;99.90
31735;DHT22;18313;48.518;9.124;2022-12-07T00:56:57;4.10;99.90
31735;DHT22;18313;48.518;9.124;2022-12-07T00:59:43;4.00;99.90
31735;DHT22;18313;48.518;9.124;2022-12-07T01:02:28;4.00;99.90
31735;DHT22;18313;48.518;9.124;2022-12-07T01:05:14;4.10;99.90
31735;DHT22;18313;48.518;9.124;2022-12-07T01:07:59;4.10;99.90
31735;DHT22;18313;48.518;9.124;2022-12-07T01:10:45;4.10;99.90
31735;DHT22;18313;48.518;9.124;2022-12-07T01:13:31;4.00;99.90
31735;DHT22;18313;48.518;9.124;2022-12-07T01:16:17;4.10;99.90
31735;DHT22;18313;48.518;9.124;2022-12-07T01:19:03;4.00;99.90
31735;DHT22;18313;48.518;9.124;2022-12-07T01:21:50;4.00;99.90
31735;DHT22;18313;48.518;9.124;2022-12-07T01:24:35;4.00;99.90
31735;DHT22;18313;48.518;9.124;2022-12-07T01:27:21;4.00;99.90
31735;DHT22;18313;48.518;9.124;2022-12-07T01:30:07;4.10;99.90
31735;DHT22;18313;48.518;9.124;2022-12-07T01:32:52;4.00;99.90
31735;DHT22;18313;48.518;9.124;2022-12-07T01:35:38;4.00;99.90
31735;DHT22;18313;48.518;9.124;2022-12-07T01:38:23;4.00;99.90
31735;DHT22;18313;48.518;9.124;2022-12-07T01:41:09;4.00;99.90
31735;DHT22;18313;48.518;9.124;2022-12-07T01:47:03;3.90;99.90
31735;DHT22;18313;48.518;9.124;2022-12-07T01:49:49;3.90;99.90
31735;DHT22;18313;48.518;9.124;2022-12-07T01:52:36;3.90;99.90
31735;DHT22;18313;48.518;9.124;2022-12-07T01:55:23;3.90;99.90
31735;DHT22;18313;48.518;9.124;2022-12-07T01:58:09;3.90;99.90
31735;DHT22;18313;48.518;9.124;2022-12-07T02:00:55;4.00;99.90
31735;DHT22;18313;48.518;9.124;2022-12-07T02:03:43;4.00;99.90
31735;DHT22;18313;48.518;9.124;2022-12-07T02:06:29;4.00;99.90
31735;DHT22;18313;48.518;9.124;2022-12-07T02:09:15;3.90;99.90
31735;DHT22;18313;48.518;9.124;2022-12-07T02:12:01;3.90;99.90
31735;DHT22;18313;48.518;9.124;2022-12-07T02:14:48;4.00;99.90
31735;DHT22;18313;48.518;9.124;2022-12-07T02:17:56;3.90;99.90
31735;DHT22;18313;48.518;9.124;2022-12-07T02:21:07;3.90;99.90
31735;DHT22;18313;48.518;9.124;2022-12-07T02:24:10;3.90;99.90
31735;DHT22;18313;48.518;9.124;2022-12-07T02:30:12;3.90;99.90
31735;DHT22;18313;48.518;9.124;2022-12-07T02:36:36;3.90;99.90
31735;DHT22;18313;48.518;9.124;2022-12-07T02:39:20;3.90;99.90
31735;DHT22;18313;48.518;9.124;2022-12-07T02:42:14;3.90;99.90
31735;DHT22;18313;48.518;9.124;2022-12-07T02:45:01;3.90;99.90
31735;DHT22;18313;48.518;9.124;2022-12-07T02:47:51;4.00;99.90
31735;DHT22;18313;48.518;9.124;2022-12-07T02:50:37;4.10;99.90
31735;DHT22;18313;48.518;9.124;2022-12-07T02:53:37;4.00;99.90
31735;DHT22;18313;48.518;9.124;2022-12-07T03:00:00;4.00;99.90
31735;DHT22;18313;48.518;9.124;2022-12-07T03:03:03;4.00;99.90
31735;DHT22;18313;48.518;9.124;2022-12-07T03:09:14;4.00;99.90
31735;DHT22;18313;48.518;9.124;2022-12-07T03:12:10;4.00;99.90
31735;DHT22;18313;48.518;9.124;2022-12-07T03:15:09;4.00;99.90
31735;DHT22;18313;48.518;9.124;2022-12-07T03:17:57;3.90;99.90
31735;DHT22;18313;48.518;9.124;2022-12-07T03:20:44;3.80;99.90
31735;DHT22;18313;48.518;9.124;2022-12-07T03:23:32;3.70;99.90
31735;DHT22;18313;48.518;9.124;2022-12-07T03:26:22;3.60;99.90
31735;DHT22;18313;48.518;9.124;2022-12-07T03:29:14;3.50;99.90
31735;DHT22;18313;48.518;9.124;2022-12-07T03:32:09;3.50;99.90
31735;DHT22;18313;48.518;9.124;2022-12-07T03:35:15;3.40;99.90
31735;DHT22;18313;48.518;9.124;2022-12-07T03:38:58;3.40;99.90
31735;DHT22;18313;48.518;9.124;2022-12-07T03:41:25;3.30;99.90
31735;DHT22;18313;48.518;9.124;2022-12-07T03:44:12;3.30;99.90
31735;DHT22;18313;48.518;9.124;2022-12-07T03:47:12;3.40;99.90
31735;DHT22;18313;48.518;9.124;2022-12-07T03:50:02;3.30;99.90
31735;DHT22;18313;48.518;9.124;2022-12-07T03:53:18;3.30;99.90
31735;DHT22;18313;48.518;9.124;2022-12-07T03:56:06;3.30;99.90
31735;DHT22;18313;48.518;9.124;2022-12-07T03:58:54;3.30;99.90
31735;DHT22;18313;48.518;9.124;2022-12-07T04:01:43;3.30;99.90
31735;DHT22;18313;48.518;9.124;2022-12-07T04:04:29;3.20;99.90
31735;DHT22;18313;48.518;9.124;2022-12-07T04:07:16;3.10;99.90
31735;DHT22;18313;48.518;9.124;2022-12-07T04:10:02;3.10;99.90
31735;DHT22;18313;48.518;9.124;2022-12-07T04:12:48;3.10;99.90
31735;DHT22;18313;48.518;9.124;2022-12-07T04:15:34;3.20;99.90
31735;DHT22;18313;48.518;9.124;2022-12-07T04:18:20;3.20;99.90
31735;DHT22;18313;48.518;9.124;2022-12-07T04:21:06;3.10;99.90
31735;DHT22;18313;48.518;9.124;2022-12-07T04:23:51;3.10;99.90
31735;DHT22;18313;48.518;9.124;2022-12-07T04:26:37;3.20;99.90
31735;DHT22;18313;48.518;9.124;2022-12-07T04:29:23;3.20;99.90
31735;DHT22;18313;48.518;9.124;2022-12-07T04:32:09;3.10;99.90
31735;DHT22;18313;48.518;9.124;2022-12-07T04:34:54;3.20;99.90
31735;DHT22;18313;48.518;9.124;2022-12-07T04:37:40;3.10;99.90
31735;DHT22;18313;48.518;9.124;2022-12-07T04:40:27;3.00;99.90
31735;DHT22;18313;48.518;9.124;2022-12-07T04:43:12;2.90;99.90
31735;DHT22;18313;48.518;9.124;2022-12-07T04:45:58;2.80;99.90
31735;DHT22;18313;48.518;9.124;2022-12-07T04:48:43;2.80;99.90
31735;DHT22;18313;48.518;9.124;2022-12-07T04:51:29;2.80;99.90
31735;DHT22;18313;48.518;9.124;2022-12-07T04:54:15;2.80;99.90
31735;DHT22;18313;48.518;9.124;2022-12-07T04:57:01;2.90;99.90
31735;DHT22;18313;48.518;9.124;2022-12-07T04:59:46;2.80;99.90
31735;DHT22;18313;48.518;9.124;2022-12-07T05:02:32;2.70;99.90
31735;DHT22;18313;48.518;9.124;2022-12-07T05:05:17;2.70;99.90
31735;DHT22;18313;48.518;9.124;2022-12-07T05:08:03;2.70;99.90
31735;DHT22;18313;48.518;9.124;2022-12-07T05:10:49;2.60;99.90
31735;DHT22;18313;48.518;9.124;2022-12-07T05:13:35;2.60;99.90
31735;DHT22;18313;48.518;9.124;2022-12-07T05:16:21;2.60;99.90
31735;DHT22;18313;48.518;9.124;2022-12-07T05:19:07;2.60;99.90
31735;DHT22;18313;48.518;9.124;2022-12-07T05:21:53;2.60;99.90
31735;DHT22;18313;48.518;9.124;2022-12-07T05:24:39;2.60;99.90
31735;DHT22;18313;48.518;9.124;2022-12-07T05:27:24;2.60;99.90
31735;DHT22;18313;48.518;9.124;2022-12-07T05:30:10;2.60;99.90
31735;DHT22;18313;48.518;9.124;2022-12-07T05:32:56;2.50;99.90
31735;DHT22;18313;48.518;9.124;2022-12-07T05:35:41;2.50;99.90
31735;DHT22;18313;48.518;9.124;2022-12-07T05:38:27;2.60;99.90
31735;DHT22;18313;48.518;9.124;2022-12-07T05:41:15;2.50;99.90
31735;DHT22;18313;48.518;9.124;2022-12-07T05:44:19;2.50;99.90
31735;DHT22;18313;48.518;9.124;2022-12-07T05:47:05;2.50;99.90
31735;DHT22;18313;48.518;9.124;2022-12-07T05:49:51;2.40;99.90
31735;DHT22;18313;48.518;9.124;2022-12-07T05:52:36;2.40;99.90
31735;DHT22;18313;48.518;9.124;2022-12-07T05:55:22;2.30;99.90
31735;DHT22;18313;48.518;9.124;2022-12-07T05:58:07;2.30;99.90
31735;DHT22;18313;48.518;9.124;2022-12-07T06:01:11;2.30;99.90
31735;DHT22;18313;48.518;9.124;2022-12-07T06:03:57;2.40;99.90
31735;DHT22;18313;48.518;9.124;2022-12-07T06:06:42;2.30;99.90
31735;DHT22;18313;48.518;9.124;2022-12-07T06:09:28;2.10;99.90
31735;DHT22;18313;48.518;9.124;2022-12-07T06:12:14;2.10;99.90
31735;DHT22;18313;48.518;9.124;2022-12-07T06:15:18;1.90;99.90
31735;DHT22;18313;48.518;9.124;2022-12-07T06:18:03;1.80;99.90
31735;DHT22;18313;48.518;9.124;2022-12-07T06:20:49;1.70;99.90
31735;DHT22;18313;48.518;9.124;2022-12-07T06:23:34;1.70;99.90
31735;DHT22;18313;48.518;9.124;2022-12-07T06:26:20;1.60;99.90
31735;DHT22;18313;48.518;9.124;2022-12-07T06:29:06;1.60;99.90
31735;DHT22;18313;48.518;9.124;2022-12-07T06:31:51;1.60;99.90
31735;DHT22;18313;48.518;9.124;2022-12-07T06:34:37;1.50;99.90
31735;DHT22;18313;48.518;9.124;2022-12-07T06:37:23;1.50;99.90
31735;DHT22;18313;48.518;9.124;2022-12-07T06:40:09;1.50;99.90
31735;DHT22;18313;48.518;9.124;2022-12-07T06:42:55;1.40;99.90
31735;DHT22;18313;48.518;9.124;2022-12-07T06:45:41;1.30;99.90
31735;DHT22;18313;48.518;9.124;2022-12-07T06:48:27;1.30;99.90
31735;DHT22;18313;48.518;9.124;2022-12-07T06:51:12;1.30;99.90
31735;DHT22;18313;48.518;9.124;2022-12-07T06:53:58;1.30;99.90
31735;DHT22;18313;48.518;9.124;2022-12-07T06:56:44;1.40;99.90
31735;DHT22;18313;48.518;9.124;2022-12-07T06:59:30;1.30;99.90
31735;DHT22;18313;48.518;9.124;2022-12-07T07:02:15;1.30;99.90
31735;DHT22;18313;48.518;9.124;2022-12-07T07:05:01;1.30;99.90
31735;DHT22;18313;48.518;9.124;2022-12-07T07:07:47;1.40;99.90
31735;DHT22;18313;48.518;9.124;2022-12-07T07:10:53;1.40;99.90
31735;DHT22;18313;48.518;9.124;2022-12-07T07:13:39;1.40;99.90
31735;DHT22;18313;48.518;9.124;2022-12-07T07:16:24;1.40;99.90
31735;DHT22;18313;48.518;9.124;2022-12-07T07:19:10;1.50;99.90
31735;DHT22;18313;48.518;9.124;2022-12-07T07:21:55;1.60;99.90
31735;DHT22;18313;48.518;9.124;2022-12-07T07:24:41;1.60;99.90
31735;DHT22;18313;48.518;9.124;2022-12-07T07:27:26;1.60;99.90
31735;DHT22;18313;48.518;9.124;2022-12-07T07:30:12;1.60;99.90
31735;DHT22;18313;48.518;9.124;2022-12-07T07:32:59;1.60;99.90
31735;DHT22;18313;48.518;9.124;2022-12-07T07:35:44;1.60;99.90
31735;DHT22;18313;48.518;9.124;2022-12-07T07:38:30;1.70;99.90
31735;DHT22;18313;48.518;9.124;2022-12-07T07:41:16;1.70;99.90
31735;DHT22;18313;48.518;9.124;2022-12-07T07:44:01;1.80;99.90
31735;DHT22;18313;48.518;9.124;2022-12-07T07:46:46;1.80;99.90
31735;DHT22;18313;48.518;9.124;2022-12-07T07:49:32;1.80;99.90
31735;DHT22;18313;48.518;9.124;2022-12-07T07:52:18;1.90;99.90
31735;DHT22;18313;48.518;9.124;2022-12-07T07:55:04;1.90;99.90
31735;DHT22;18313;48.518;9.124;2022-12-07T07:57:49;1.90;99.90
31735;DHT22;18313;48.518;9.124;2022-12-07T08:00:39;1.90;99.90
31735;DHT22;18313;48.518;9.124;2022-12-07T08:03:24;1.90;99.90
31735;DHT22;18313;48.518;9.124;2022-12-07T08:06:10;2.00;99.90
31735;DHT22;18313;48.518;9.124;2022-12-07T08:08:55;2.10;99.90
31735;DHT22;18313;48.518;9.124;2022-12-07T08:11:43;2.10;99.90
31735;DHT22;18313;48.518;9.124;2022-12-07T08:14:30;2.20;99.90
31735;DHT22;18313;48.518;9.124;2022-12-07T08:17:15;2.20;99.90
31735;DHT22;18313;48.518;9.124;2022-12-07T08:20:01;2.30;99.90
31735;DHT22;18313;48.518;9.124;2022-12-07T08:22:47;2.30;99.90
31735;DHT22;18313;48.518;9.124;2022-12-07T08:25:36;2.30;99.90
31735;DHT22;18313;48.518;9.124;2022-12-07T08:28:21;2.40;99.90
31735;DHT22;18313;48.518;9.124;2022-12-07T08:31:14;2.40;99.90
31735;DHT22;18313;48.518;9.124;2022-12-07T08:34:01;2.40;99.90
31735;DHT22;18313;48.518;9.124;2022-12-07T08:36:46;2.50;99.90
31735;DHT22;18313;48.518;9.124;2022-12-07T08:39:32;2.60;99.90
31735;DHT22;18313;48.518;9.124;2022-12-07T08:42:17;2.70;99.90
31735;DHT22;18313;48.518;9.124;2022-12-07T08:45:08;2.80;99.90
31735;DHT22;18313;48.518;9.124;2022-12-07T08:47:59;2.80;99.90
31735;DHT22;18313;48.518;9.124;2022-12-07T08:50:46;2.90;99.90
31735;DHT22;18313;48.518;9.124;2022-12-07T08:53:35;2.90;99.90
31735;DHT22;18313;48.518;9.124;2022-12-07T08:56:22;3.00;99.90
31735;DHT22;18313;48.518;9.124;2022-12-07T08:59:08;3.10;99.90
31735;DHT22;18313;48.518;9.124;2022-12-07T09:01:54;3.30;99.90
31735;DHT22;18313;48.518;9.124;2022-12-07T09:04:40;3.40;99.90
31735;DHT22;18313;48.518;9.124;2022-12-07T09:07:26;3.50;99.90
31735;DHT22;18313;48.518;9.124;2022-12-07T09:10:13;3.40;99.90
31735;DHT22;18313;48.518;9.124;2022-12-07T09:12:58;3.60;99.90
31735;DHT22;18313;48.518;9.124;2022-12-07T09:15:46;3.60;99.90
31735;DHT22;18313;48.518;9.124;2022-12-07T09:18:32;3.60;99.90
31735;DHT22;18313;48.518;9.124;2022-12-07T09:21:18;3.60;99.90
31735;DHT22;18313;48.518;9.124;2022-12-07T09:24:03;3.70;99.90
31735;DHT22;18313;48.518;9.124;2022-12-07T09:26:49;3.70;99.90
31735;DHT22;18313;48.518;9.124;2022-12-07T09:29:35;3.90;99.90
31735;DHT22;18313;48.518;9.124;2022-12-07T09:32:22;3.90;99.90
31735;DHT22;18313;48.518;9.124;2022-12-07T09:35:08;3.80;99.90
31735;DHT22;18313;48.518;9.124;2022-12-07T09:37:55;3.90;99.90
31735;DHT22;18313;48.518;9.124;2022-12-07T09:40:41;4.10;99.90
31735;DHT22;18313;48.518;9.124;2022-12-07T09:43:28;4.10;99.90
31735;DHT22;18313;48.518;9.124;2022-12-07T09:46:16;4.20;99.90
31735;DHT22;18313;48.518;9.124;2022-12-07T09:49:03;4.30;99.90
31735;DHT22;18313;48.518;9.124;2022-12-07T09:54:58;4.60;99.90
31735;DHT22;18313;48.518;9.124;2022-12-07T09:57:43;4.70;99.90
31735;DHT22;18313;48.518;9.124;2022-12-07T10:00:29;4.70;99.90
31735;DHT22;18313;48.518;9.124;2022-12-07T10:03:15;4.90;99.90
31735;DHT22;18313;48.518;9.124;2022-12-07T10:06:01;4.90;99.90
31735;DHT22;18313;48.518;9.124;2022-12-07T10:08:47;5.00;99.90
31735;DHT22;18313;48.518;9.124;2022-12-07T10:11:33;5.00;99.90
31735;DHT22;18313;48.518;9.124;2022-12-07T10:14:18;5.10;99.90
31735;DHT22;18313;48.518;9.124;2022-12-07T10:17:28;5.20;99.90
31735;DHT22;18313;48.518;9.124;2022-12-07T10:20:19;5.30;99.90
31735;DHT22;18313;48.518;9.124;2022-12-07T10:23:14;5.30;99.90
31735;DHT22;18313;48.518;9.124;2022-12-07T10:26:20;5.30;99.90
31735;DHT22;18313;48.518;9.124;2022-12-07T10:38:16;5.40;99.90
31735;DHT22;18313;48.518;9.124;2022-12-07T10:41:06;5.40;99.90
31735;DHT22;18313;48.518;9.124;2022-12-07T10:43:55;5.50;99.90
31735;DHT22;18313;48.518;9.124;2022-12-07T10:47:03;5.60;99.90
31735;DHT22;18313;48.518;9.124;2022-12-07T10:50:14;5.60;99.90
31735;DHT22;18313;48.518;9.124;2022-12-07T11:08:44;5.60;99.90
31735;DHT22;18313;48.518;9.124;2022-12-07T11:14:50;5.70;99.90
31735;DHT22;18313;48.518;9.124;2022-12-07T11:17:48;5.70;99.90
31735;DHT22;18313;48.518;9.124;2022-12-07T11:20:51;5.70;99.90
31735;DHT22;18313;48.518;9.124;2022-12-07T11:27:01;5.90;99.90
31735;DHT22;18313;48.518;9.124;2022-12-07T11:33:29;5.90;99.90
31735;DHT22;18313;48.518;9.124;2022-12-07T11:36:41;6.00;99.90
31735;DHT22;18313;48.518;9.124;2022-12-07T11:39:51;6.10;99.90
31735;DHT22;18313;48.518;9.124;2022-12-07T11:42:42;6.20;99.90
31735;DHT22;18313;48.518;9.124;2022-12-07T11:45:33;6.20;99.90
31735;DHT22;18313;48.518;9.124;2022-12-07T11:48:33;6.20;99.90
31735;DHT22;18313;48.518;9.124;2022-12-07T11:51:21;6.20;99.90
31735;DHT22;18313;48.518;9.124;2022-12-07T11:54:21;6.20;99.90
31735;DHT22;18313;48.518;9.124;2022-12-07T11:57:17;6.20;99.90
31735;DHT22;18313;48.518;9.124;2022-12-07T12:03:03;6.30;99.90
31735;DHT22;18313;48.518;9.124;2022-12-07T12:05:54;6.20;99.90
31735;DHT22;18313;48.518;9.124;2022-12-07T12:08:50;6.30;99.90
31735;DHT22;18313;48.518;9.124;2022-12-07T12:12:27;6.30;99.90
31735;DHT22;18313;48.518;9.124;2022-12-07T12:21:57;6.20;99.90
31735;DHT22;18313;48.518;9.124;2022-12-07T12:24:50;6.20;99.90
31735;DHT22;18313;48.518;9.124;2022-12-07T12:27:38;5.90;99.90
31735;DHT22;18313;48.518;9.124;2022-12-07T12:33:28;6.00;99.90
31735;DHT22;18313;48.518;9.124;2022-12-07T12:39:11;6.20;99.90
31735;DHT22;18313;48.518;9.124;2022-12-07T12:42:00;6.20;99.90
31735;DHT22;18313;48.518;9.124;2022-12-07T12:45:11;6.20;99.90
31735;DHT22;18313;48.518;9.124;2022-12-07T12:48:35;6.40;99.90
31735;DHT22;18313;48.518;9.124;2022-12-07T12:51:38;6.50;99.90
31735;DHT22;18313;48.518;9.124;2022-12-07T12:54:26;6.50;99.90
31735;DHT22;18313;48.518;9.124;2022-12-07T12:57:21;6.50;99.90
31735;DHT22;18313;48.518;9.124;2022-12-07T13:00:21;6.60;99.90
31735;DHT22;18313;48.518;9.124;2022-12-07T13:03:27;6.50;99.90
31735;DHT22;18313;48.518;9.124;2022-12-07T13:06:31;6.50;99.90
31735;DHT22;18313;48.518;9.124;2022-12-07T13:09:21;6.50;99.90
31735;DHT22;18313;48.518;9.124;2022-12-07T13:12:15;6.60;99.90
31735;DHT22;18313;48.518;9.124;2022-12-07T13:15:01;6.50;99.90
31735;DHT22;18313;48.518;9.124;2022-12-07T13:17:55;6.40;99.90
31735;DHT22;18313;48.518;9.124;2022-12-07T13:29:16;6.60;99.90
31735;DHT22;18313;48.518;9.124;2022-12-07T13:32:01;6.60;99.90
31735;DHT22;18313;48.518;9.124;2022-12-07T13:34:47;6.60;99.90
31735;DHT22;18313;48.518;9.124;2022-12-07T13:37:33;6.50;99.90
31735;DHT22;18313;48.518;9.124;2022-12-07T13:40:23;6.50;99.90
31735;DHT22;18313;48.518;9.124;2022-12-07T13:43:14;6.50;99.90
31735;DHT22;18313;48.518;9.124;2022-12-07T13:46:10;6.50;99.90
31735;DHT22;18313;48.518;9.124;2022-12-07T13:49:02;6.50;99.90
31735;DHT22;18313;48.518;9.124;2022-12-07T13:52:17;6.50;99.90
31735;DHT22;18313;48.518;9.124;2022-12-07T13:57:53;6.50;99.90
31735;DHT22;18313;48.518;9.124;2022-12-07T14:00:40;6.50;99.90
31735;DHT22;18313;48.518;9.124;2022-12-07T14:03:32;6.50;99.90
31735;DHT22;18313;48.518;9.124;2022-12-07T14:06:23;6.50;99.90
31735;DHT22;18313;48.518;9.124;2022-12-07T14:09:20;6.40;99.90
31735;DHT22;18313;48.518;9.124;2022-12-07T14:12:06;6.50;99.90
31735;DHT22;18313;48.518;9.124;2022-12-07T14:14:52;6.50;99.90
31735;DHT22;18313;48.518;9.124;2022-12-07T14:17:53;6.50;99.90
31735;DHT22;18313;48.518;9.124;2022-12-07T14:20:40;6.40;99.90
31735;DHT22;18313;48.518;9.124;2022-12-07T14:23:27;6.40;99.90
31735;DHT22;18313;48.518;9.124;2022-12-07T14:26:20;6.30;99.90
31735;DHT22;18313;48.518;9.124;2022-12-07T14:32:27;6.20;99.90
31735;DHT22;18313;48.518;9.124;2022-12-07T14:35:16;6.20;99.90
31735;DHT22;18313;48.518;9.124;2022-12-07T14:38:02;6.20;99.90
31735;DHT22;18313;48.518;9.124;2022-12-07T14:40:48;6.10;99.90
31735;DHT22;18313;48.518;9.124;2022-12-07T14:43:34;6.10;99.90
31735;DHT22;18313;48.518;9.124;2022-12-07T14:46:29;6.10;99.90
31735;DHT22;18313;48.518;9.124;2022-12-07T14:49:15;6.10;99.90
31735;DHT22;18313;48.518;9.124;2022-12-07T14:52:28;6.10;99.90
31735;DHT22;18313;48.518;9.124;2022-12-07T14:55:35;6.00;99.90
31735;DHT22;18313;48.518;9.124;2022-12-07T14:58:20;6.00;99.90
31735;DHT22;18313;48.518;9.124;2022-12-07T15:01:06;6.00;99.90
31735;DHT22;18313;48.518;9.124;2022-12-07T15:03:52;5.90;99.90
31735;DHT22;18313;48.518;9.124;2022-12-07T15:06:38;5.90;99.90
31735;DHT22;18313;48.518;9.124;2022-12-07T15:09:23;5.80;99.90
31735;DHT22;18313;48.518;9.124;2022-12-07T15:12:09;5.80;99.90
31735;DHT22;18313;48.518;9.124;2022-12-07T15:14:55;5.80;99.90
31735;DHT22;18313;48.518;9.124;2022-12-07T15:17:41;5.70;99.90
31735;DHT22;18313;48.518;9.124;2022-12-07T15:20:26;5.60;99.90
31735;DHT22;18313;48.518;9.124;2022-12-07T15:23:12;5.60;99.90
31735;DHT22;18313;48.518;9.124;2022-12-07T15:25:57;5.60;99.90
31735;DHT22;18313;48.518;9.124;2022-12-07T15:28:43;5.60;99.90
31735;DHT22;18313;48.518;9.124;2022-12-07T15:31:28;5.50;99.90
31735;DHT22;18313;48.518;9.124;2022-12-07T15:34:34;5.50;99.90
31735;DHT22;18313;48.518;9.124;2022-12-07T15:37:24;5.40;99.90
31735;DHT22;18313;48.518;9.124;2022-12-07T15:40:11;5.40;99.90
31735;DHT22;18313;48.518;9.124;2022-12-07T15:42:57;5.40;99.90
31735;DHT22;18313;48.518;9.124;2022-12-07T15:45:43;5.50;99.90
31735;DHT22;18313;48.518;9.124;2022-12-07T15:48:28;5.40;99.90
31735;DHT22;18313;48.518;9.124;2022-12-07T15:51:14;5.30;99.90
31735;DHT22;18313;48.518;9.124;2022-12-07T15:54:08;5.20;99.90
31735;DHT22;18313;48.518;9.124;2022-12-07T15:56:55;5.20;99.90
31735;DHT22;18313;48.518;9.124;2022-12-07T15:59:40;5.20;99.90
31735;DHT22;18313;48.518;9.124;2022-12-07T16:02:26;5.20;99.90
31735;DHT22;18313;48.518;9.124;2022-12-07T16:05:11;5.10;99.90
31735;DHT22;18313;48.518;9.124;2022-12-07T16:07:56;5.10;99.90
31735;DHT22;18313;48.518;9.124;2022-12-07T16:10:42;5.00;99.90
31735;DHT22;18313;48.518;9.124;2022-12-07T16:13:28;4.90;99.90
31735;DHT22;18313;48.518;9.124;2022-12-07T16:16:16;4.80;99.90
31735;DHT22;18313;48.518;9.124;2022-12-07T16:19:02;4.80;99.90
31735;DHT22;18313;48.518;9.124;2022-12-07T16:21:48;4.80;99.90
31735;DHT22;18313;48.518;9.124;2022-12-07T16:24:33;4.80;99.90
31735;DHT22;18313;48.518;9.124;2022-12-07T16:27:19;4.70;99.90
31735;DHT22;18313;48.518;9.124;2022-12-07T16:30:05;4.70;99.90
31735;DHT22;18313;48.518;9.124;2022-12-07T16:32:51;4.70;99.90
31735;DHT22;18313;48.518;9.124;2022-12-07T16:35:41;4.60;99.90
31735;DHT22;18313;48.518;9.124;2022-12-07T16:38:27;4.60;99.90
31735;DHT22;18313;48.518;9.124;2022-12-07T16:41:13;4.60;99.90
31735;DHT22;18313;48.518;9.124;2022-12-07T16:44:06;4.50;99.90
31735;DHT22;18313;48.518;9.124;2022-12-07T16:46:52;4.50;99.90
31735;DHT22;18313;48.518;9.124;2022-12-07T16:49:38;4.50;99.90
31735;DHT22;18313;48.518;9.124;2022-12-07T16:52:24;4.60;99.90
31735;DHT22;18313;48.518;9.124;2022-12-07T16:55:09;4.40;99.90
31735;DHT22;18313;48.518;9.124;2022-12-07T16:57:55;4.40;99.90
31735;DHT22;18313;48.518;9.124;2022-12-07T17:00:41;4.40;99.90
31735;DHT22;18313;48.518;9.124;2022-12-07T17:03:27;4.40;99.90
31735;DHT22;18313;48.518;9.124;2022-12-07T17:06:22;4.40;99.90
31735;DHT22;18313;48.518;9.124;2022-12-07T17:09:07;4.30;99.90
31735;DHT22;18313;48.518;9.124;2022-12-07T17:11:55;4.20;99.90
31735;DHT22;18313;48.518;9.124;2022-12-07T17:14:40;4.10;99.90
31735;DHT22;18313;48.518;9.124;2022-12-07T17:17:46;4.10;99.90
31735;DHT22;18313;48.518;9.124;2022-12-07T17:20:36;4.10;99.90
31735;DHT22;18313;48.518;9.124;2022-12-07T17:23:21;4.10;99.90
31735;DHT22;18313;48.518;9.124;2022-12-07T17:26:12;4.10;99.90
31735;DHT22;18313;48.518;9.124;2022-12-07T17:28:59;4.10;99.90
31735;DHT22;18313;48.518;9.124;2022-12-07T17:31:46;4.10;99.90
31735;DHT22;18313;48.518;9.124;2022-12-07T17:34:36;4.20;99.90
31735;DHT22;18313;48.518;9.124;2022-12-07T17:37:22;4.20;99.90
31735;DHT22;18313;48.518;9.124;2022-12-07T17:40:07;4.10;99.90
31735;DHT22;18313;48.518;9.124;2022-12-07T17:42:54;4.10;99.90
31735;DHT22;18313;48.518;9.124;2022-12-07T17:45:40;4.20;99.90
31735;DHT22;18313;48.518;9.124;2022-12-07T17:48:26;4.10;99.90
31735;DHT22;18313;48.518;9.124;2022-12-07T17:51:11;4.10;99.90
31735;DHT22;18313;48.518;9.124;2022-12-07T17:54:16;4.10;99.90
31735;DHT22;18313;48.518;9.124;2022-12-07T17:57:02;3.90;99.90
31735;DHT22;18313;48.518;9.124;2022-12-07T17:59:47;3.90;99.90
31735;DHT22;18313;48.518;9.124;2022-12-07T18:02:33;3.80;99.90
31735;DHT22;18313;48.518;9.124;2022-12-07T18:05:18;3.80;99.90
31735;DHT22;18313;48.518;9.124;2022-12-07T18:08:04;3.80;99.90
31735;DHT22;18313;48.518;9.124;2022-12-07T18:10:57;3.80;99.90
31735;DHT22;18313;48.518;9.124;2022-12-07T18:13:44;3.70;99.90
31735;DHT22;18313;48.518;9.124;2022-12-07T18:16:31;3.70;99.90
31735;DHT22;18313;48.518;9.124;2022-12-07T18:19:20;3.70;99.90
31735;DHT22;18313;48.518;9.124;2022-12-07T18:22:05;3.60;99.90
31735;DHT22;18313;48.518;9.124;2022-12-07T18:24:51;3.60;99.90
31735;DHT22;18313;48.518;9.124;2022-12-07T18:27:36;3.60;99.90
31735;DHT22;18313;48.518;9.124;2022-12-07T18:30:22;3.60;99.90
31735;DHT22;18313;48.518;9.124;2022-12-07T18:33:27;3.60;99.90
31735;DHT22;18313;48.518;9.124;2022-12-07T18:36:14;3.40;99.90
31735;DHT22;18313;48.518;9.124;2022-12-07T18:39:03;3.40;99.90
31735;DHT22;18313;48.518;9.124;2022-12-07T18:41:49;3.40;99.90
31735;DHT22;18313;48.518;9.124;2022-12-07T18:44:34;3.50;99.90
31735;DHT22;18313;48.518;9.124;2022-12-07T18:47:20;3.40;99.90
31735;DHT22;18313;48.518;9.124;2022-12-07T18:50:06;3.40;99.90
31735;DHT22;18313;48.518;9.124;2022-12-07T18:52:51;3.40;99.90
31735;DHT22;18313;48.518;9.124;2022-12-07T18:55:38;3.40;99.90
31735;DHT22;18313;48.518;9.124;2022-12-07T18:58:23;3.40;99.90
31735;DHT22;18313;48.518;9.124;2022-12-07T19:01:09;3.30;99.90
31735;DHT22;18313;48.518;9.124;2022-12-07T19:03:56;3.20;99.90
31735;DHT22;18313;48.518;9.124;2022-12-07T19:06:44;3.20;99.90
31735;DHT22;18313;48.518;9.124;2022-12-07T19:09:30;3.10;99.90
31735;DHT22;18313;48.518;9.124;2022-12-07T19:12:15;3.10;99.90
31735;DHT22;18313;48.518;9.124;2022-12-07T19:15:01;3.10;99.90
31735;DHT22;18313;48.518;9.124;2022-12-07T19:17:47;3.10;99.90
31735;DHT22;18313;48.518;9.124;2022-12-07T19:20:33;3.10;99.90
31735;DHT22;18313;48.518;9.124;2022-12-07T19:23:19;3.10;99.90
31735;DHT22;18313;48.518;9.124;2022-12-07T19:26:04;3.10;99.90
31735;DHT22;18313;48.518;9.124;2022-12-07T19:28:50;3.10;99.90